createdAt,value
2023-02-22T00:01:50.985Z,66.40
2023-02-22T00:04:21.359Z,66.79
2023-02-22T00:06:49.676Z,67.07
2023-02-22T00:09:21.449Z,67.19
2023-02-22T00:11:48.965Z,67.33
2023-02-22T00:14:15.818Z,67.50
2023-02-22T00:16:42.461Z,67.98
2023-02-22T00:19:10.667Z,67.75
2023-02-22T00:21:37.440Z,68.35
2023-02-22T00:24:22.907Z,68.16
2023-02-22T00:26:57.270Z,68.27
2023-02-22T00:29:24.906Z,68.58
2023-02-22T00:31:51.584Z,69.05
2023-02-22T00:34:18.153Z,68.71
2023-02-22T00:36:49.113Z,69.54
2023-02-22T00:39:16.336Z,70.02
2023-02-22T00:41:43.400Z,70.88
2023-02-22T00:44:10.091Z,71.61
2023-02-22T00:46:36.661Z,71.61
2023-02-22T00:49:03.720Z,71.27
2023-02-22T00:51:30.335Z,71.63
2023-02-22T00:53:56.922Z,71.39
2023-02-22T00:56:23.870Z,71.23
2023-02-22T00:58:50.417Z,72.04
2023-02-22T01:01:17.358Z,72.12
2023-02-22T01:03:44.126Z,72.32
2023-02-22T01:06:11.070Z,72.35
2023-02-22T01:08:37.635Z,72.41
2023-02-22T01:11:04.567Z,72.42
2023-02-22T01:13:31.102Z,72.59
2023-02-22T01:15:57.871Z,72.37
2023-02-22T01:18:26.133Z,72.05
2023-02-22T01:20:52.862Z,72.04
2023-02-22T01:23:20.012Z,72.78
2023-02-22T01:25:46.570Z,72.89
2023-02-22T01:28:13.910Z,73.29
2023-02-22T01:30:40.749Z,72.46
2023-02-22T01:33:07.972Z,72.19
2023-02-22T01:35:37.020Z,72.47
2023-02-22T01:38:03.584Z,73.77
2023-02-22T01:40:35.998Z,73.14
2023-02-22T01:43:25.032Z,73.79
2023-02-22T01:46:00.858Z,74.69
2023-02-22T01:48:49.444Z,74.90
2023-02-22T01:51:19.693Z,75.41
2023-02-22T01:54:04.233Z,74.94
2023-02-22T01:56:34.476Z,75.28
2023-02-22T01:59:08.170Z,76.15
2023-02-22T02:01:36.528Z,76.15
2023-02-22T02:04:07.800Z,77.09
2023-02-22T02:06:35.988Z,76.67
2023-02-22T02:09:02.492Z,76.26
2023-02-22T02:11:29.689Z,76.68
2023-02-22T02:13:59.802Z,76.89
2023-02-22T02:16:37.262Z,76.53
2023-02-22T02:19:05.564Z,76.38
2023-02-22T02:21:51.806Z,76.44
2023-02-22T02:24:45.554Z,76.83
2023-02-22T02:27:19.392Z,76.92
2023-02-22T02:30:29.499Z,77.45
2023-02-22T02:33:22.454Z,77.04
2023-02-22T02:35:54.245Z,76.06
2023-02-22T02:38:32.272Z,75.77
2023-02-22T02:41:04.075Z,75.05
2023-02-22T02:43:40.509Z,75.38
2023-02-22T02:46:23.932Z,75.38
2023-02-22T02:48:56.862Z,76.64
2023-02-22T02:51:28.113Z,77.18
2023-02-22T02:53:55.889Z,77.88
2023-02-22T02:56:23.553Z,77.70
2023-02-22T02:58:53.436Z,77.27
2023-02-22T03:01:43.274Z,77.76
2023-02-22T03:04:28.169Z,77.05
2023-02-22T03:07:09.857Z,77.06
2023-02-22T03:09:59.583Z,77.61
2023-02-22T03:12:44.142Z,76.88
2023-02-22T03:15:14.033Z,76.68
2023-02-22T03:17:51.086Z,75.86
2023-02-22T03:20:23.804Z,75.62
2023-02-22T03:23:07.783Z,75.78
2023-02-22T03:25:40.433Z,76.03
2023-02-22T03:28:14.726Z,76.09
2023-02-22T03:30:48.572Z,75.47
2023-02-22T03:33:20.896Z,75.88
2023-02-22T03:35:57.012Z,75.99
2023-02-22T03:38:28.875Z,75.99
2023-02-22T03:40:59.448Z,76.56
2023-02-22T03:43:32.896Z,76.59
2023-02-22T03:46:00.819Z,76.92
2023-02-22T03:48:46.180Z,76.79
2023-02-22T03:51:17.130Z,77.11
2023-02-22T03:53:50.540Z,76.71
2023-02-22T03:56:24.523Z,76.78
2023-02-22T03:58:54.475Z,76.77
2023-02-22T04:01:28.713Z,77.48
2023-02-22T04:03:55.279Z,77.46
2023-02-22T04:06:21.990Z,77.29
2023-02-22T04:08:48.492Z,77.08
2023-02-22T04:11:15.230Z,76.04
2023-02-22T04:13:41.938Z,76.38
2023-02-22T04:16:08.594Z,76.23
2023-02-22T04:18:35.250Z,76.98
2023-02-22T04:21:02.644Z,77.12
2023-02-22T04:23:30.744Z,77.28
2023-02-22T04:25:57.537Z,77.87
2023-02-22T04:28:24.031Z,77.39
2023-02-22T04:30:50.650Z,77.56
2023-02-22T04:33:17.379Z,77.44
2023-02-22T04:35:44.096Z,77.66
2023-02-22T04:38:10.754Z,78.43
2023-02-22T04:40:37.511Z,78.03
2023-02-22T04:43:04.110Z,78.60
2023-02-22T04:45:31.087Z,78.90
2023-02-22T04:47:57.835Z,78.62
2023-02-22T04:50:24.636Z,79.18
2023-02-22T04:52:51.303Z,79.55
2023-02-22T04:55:17.933Z,79.01
2023-02-22T04:57:44.497Z,79.03
2023-02-22T05:00:11.633Z,80.14
2023-02-22T05:02:40.134Z,80.03
2023-02-22T05:05:07.306Z,79.19
2023-02-22T05:07:33.910Z,79.53
2023-02-22T05:10:02.976Z,79.54
2023-02-22T05:12:29.513Z,80.00
2023-02-22T05:14:57.540Z,78.01
2023-02-22T05:17:24.172Z,77.44
2023-02-22T05:19:50.997Z,76.62
2023-02-22T05:22:18.015Z,76.43
2023-02-22T05:24:47.211Z,76.78
2023-02-22T05:27:13.850Z,76.93
2023-02-22T05:29:40.736Z,76.82
2023-02-22T05:32:07.358Z,77.20
2023-02-22T05:34:33.989Z,77.53
2023-02-22T05:37:00.583Z,77.60
2023-02-22T05:39:27.152Z,77.94
2023-02-22T05:41:53.756Z,77.72
2023-02-22T05:44:20.353Z,77.89
2023-02-22T05:46:47.065Z,79.21
2023-02-22T05:49:13.723Z,78.96
2023-02-22T05:51:40.330Z,79.46
2023-02-22T05:54:07.108Z,79.76
2023-02-22T05:56:33.830Z,80.17
2023-02-22T05:59:00.464Z,80.71
2023-02-22T06:01:27.268Z,80.09
2023-02-22T06:03:54.143Z,80.64
2023-02-22T06:06:22.432Z,81.28
2023-02-22T06:08:49.362Z,80.99
2023-02-22T06:11:16.329Z,81.50
2023-02-22T06:13:48.873Z,81.15
2023-02-22T06:16:15.435Z,80.49
2023-02-22T06:18:41.960Z,80.23
2023-02-22T06:21:09.005Z,79.68
2023-02-22T06:23:35.641Z,79.11
2023-02-22T06:26:02.194Z,78.73
2023-02-22T06:28:28.725Z,78.74
2023-02-22T06:30:55.294Z,79.13
2023-02-22T06:33:21.947Z,78.99
2023-02-22T06:35:48.485Z,79.09
2023-02-22T06:38:23.281Z,80.16
2023-02-22T06:40:49.910Z,79.71
2023-02-22T06:43:16.941Z,80.38
2023-02-22T06:45:43.886Z,80.01
2023-02-22T06:48:10.510Z,80.52
2023-02-22T06:50:37.129Z,81.36
2023-02-22T06:53:04.059Z,81.91
2023-02-22T06:55:33.729Z,81.32
2023-02-22T06:58:00.660Z,80.30
2023-02-22T07:00:29.125Z,80.08
2023-02-22T07:02:56.654Z,79.37
2023-02-22T07:05:24.621Z,78.98
2023-02-22T07:07:53.275Z,79.46
2023-02-22T07:10:26.349Z,78.63
2023-02-22T07:12:53.516Z,78.74
2023-02-22T07:15:23.784Z,78.40
2023-02-22T07:17:51.867Z,78.33
2023-02-22T07:20:20.779Z,78.77
2023-02-22T07:22:49.013Z,78.98
2023-02-22T07:25:18.866Z,78.71
2023-02-22T07:27:46.412Z,78.52
2023-02-22T07:30:16.400Z,78.49
2023-02-22T07:32:44.056Z,77.71
2023-02-22T07:35:16.902Z,76.55
2023-02-22T07:37:44.201Z,76.84
2023-02-22T07:40:11.636Z,77.92
2023-02-22T07:43:01.317Z,77.29
2023-02-22T07:45:35.885Z,76.66
2023-02-22T07:48:04.624Z,76.37
2023-02-22T07:50:32.953Z,75.87
2023-02-22T07:53:04.237Z,75.72
2023-02-22T07:55:32.664Z,75.04
2023-02-22T07:58:01.397Z,75.42
2023-02-22T08:00:36.636Z,75.30
2023-02-22T08:03:06.271Z,75.09
2023-02-22T08:05:36.172Z,74.17
2023-02-22T08:08:03.773Z,74.67
2023-02-22T08:10:31.026Z,74.25
2023-02-22T08:12:57.715Z,73.77
2023-02-22T08:15:35.918Z,73.24
2023-02-22T08:18:04.737Z,73.35
2023-02-22T08:20:31.911Z,72.60
2023-02-22T08:23:00.813Z,71.47
2023-02-22T08:25:28.736Z,70.83
2023-02-22T08:28:04.793Z,70.32
2023-02-22T08:30:32.847Z,71.04
2023-02-22T08:33:00.006Z,71.08
2023-02-22T08:35:27.694Z,69.85
2023-02-22T08:38:01.881Z,68.80
2023-02-22T08:40:31.372Z,68.29
2023-02-22T08:42:58.316Z,68.59
2023-02-22T08:45:25.233Z,67.15
2023-02-22T08:47:51.929Z,66.21
2023-02-22T08:50:25.305Z,66.30
2023-02-22T08:52:54.832Z,66.48
2023-02-22T08:55:23.333Z,67.24
2023-02-22T08:57:53.558Z,67.08
2023-02-22T09:00:27.475Z,66.34
2023-02-22T09:02:54.071Z,65.91
2023-02-22T09:05:21.426Z,65.63
2023-02-22T09:07:48.020Z,65.89
2023-02-22T09:10:17.778Z,65.09
2023-02-22T09:12:44.430Z,65.19
2023-02-22T09:15:12.534Z,64.37
2023-02-22T09:17:39.492Z,63.82
2023-02-22T09:20:08.121Z,64.02
2023-02-22T09:22:34.815Z,63.71
2023-02-22T09:25:11.454Z,63.54
2023-02-22T09:27:43.734Z,63.73
2023-02-22T09:30:23.743Z,63.26
2023-02-22T09:32:52.338Z,62.60
2023-02-22T09:35:19.954Z,62.74
2023-02-22T09:37:47.997Z,62.89
2023-02-22T09:40:24.872Z,62.53
2023-02-22T09:43:04.032Z,61.41
2023-02-22T09:45:48.429Z,61.59
2023-02-22T09:48:21.976Z,61.78
2023-02-22T09:50:52.458Z,61.61
2023-02-22T09:53:42.423Z,61.52
2023-02-22T09:56:12.814Z,60.48
2023-02-22T09:58:46.353Z,61.17
2023-02-22T10:01:43.469Z,60.32
2023-02-22T10:04:19.107Z,59.15
2023-02-22T10:07:14.309Z,59.34
2023-02-22T10:09:43.549Z,59.31
2023-02-22T10:12:44.130Z,59.98
2023-02-22T10:15:13.689Z,60.16
2023-02-22T10:17:52.517Z,59.96
2023-02-22T10:20:32.947Z,59.91
2023-02-22T10:23:19.162Z,59.71
2023-02-22T10:25:54.315Z,59.52
2023-02-22T10:28:32.186Z,59.01
2023-02-22T10:31:04.375Z,58.17
2023-02-22T10:33:39.907Z,57.98
2023-02-22T10:36:15.146Z,57.66
2023-02-22T10:38:52.250Z,58.10
2023-02-22T10:41:28.587Z,57.85
2023-02-22T10:43:56.135Z,56.85
2023-02-22T10:46:25.343Z,56.39
2023-02-22T10:48:55.315Z,57.33
2023-02-22T10:51:22.061Z,56.63
2023-02-22T10:54:07.273Z,56.05
2023-02-22T10:56:33.725Z,56.40
2023-02-22T10:59:04.503Z,56.84
2023-02-22T11:01:31.038Z,54.50
2023-02-22T11:04:25.160Z,54.40
2023-02-22T11:07:01.009Z,54.68
2023-02-22T11:09:29.087Z,54.21
2023-02-22T11:12:17.640Z,54.57
2023-02-22T11:14:44.187Z,55.07
2023-02-22T11:17:14.220Z,54.22
2023-02-22T11:19:48.127Z,54.61
2023-02-22T11:22:22.726Z,54.89
2023-02-22T11:24:57.617Z,54.96
2023-02-22T11:27:47.639Z,55.32
2023-02-22T11:30:27.533Z,54.35
2023-02-22T11:33:15.455Z,54.70
2023-02-22T11:36:04.881Z,53.96
2023-02-22T11:38:55.275Z,55.03
2023-02-22T11:41:30.540Z,54.70
2023-02-22T11:44:26.586Z,54.40
2023-02-22T11:46:56.391Z,54.47
2023-02-22T11:49:35.375Z,54.81
2023-02-22T11:52:20.502Z,55.10
2023-02-22T11:54:49.681Z,53.90
2023-02-22T11:57:22.105Z,54.02
2023-02-22T12:00:24.732Z,53.55
2023-02-22T12:03:33.060Z,53.20
2023-02-22T12:06:30.836Z,53.07
2023-02-22T12:09:10.423Z,53.37
2023-02-22T12:11:50.944Z,52.86
2023-02-22T12:14:44.159Z,52.99
2023-02-22T12:17:23.498Z,53.17
2023-02-22T12:19:54.927Z,54.08
2023-02-22T12:22:27.167Z,53.66
2023-02-22T12:25:09.532Z,52.98
2023-02-22T12:27:52.133Z,52.66
2023-02-22T12:30:24.781Z,53.01
2023-02-22T12:32:54.210Z,52.83
2023-02-22T12:35:27.547Z,52.52
2023-02-22T12:38:09.076Z,52.47
2023-02-22T12:41:04.065Z,52.64
2023-02-22T12:43:39.051Z,52.56
2023-02-22T12:46:12.350Z,52.51
2023-02-22T12:48:57.173Z,52.71
2023-02-22T12:51:53.869Z,53.46
2023-02-22T12:55:02.413Z,52.46
2023-02-22T12:57:34.677Z,52.53
2023-02-22T13:00:20.271Z,52.76
2023-02-22T13:02:58.460Z,52.20
2023-02-22T13:05:25.318Z,53.08
2023-02-22T13:08:20.313Z,52.24
2023-02-22T13:10:59.213Z,52.30
2023-02-22T13:13:37.957Z,52.22
2023-02-22T13:16:18.514Z,52.75
2023-02-22T13:19:20.624Z,52.54
2023-02-22T13:21:59.785Z,51.94
2023-02-22T13:24:32.911Z,52.48
2023-02-22T13:27:09.968Z,52.31
2023-02-22T13:29:43.852Z,52.63
2023-02-22T13:32:22.655Z,52.31
2023-02-22T13:34:52.374Z,52.29
2023-02-22T13:37:37.446Z,52.17
2023-02-22T13:40:33.137Z,51.56
2023-02-22T13:43:22.770Z,52.07
2023-02-22T13:45:59.758Z,51.71
2023-02-22T13:48:28.009Z,51.63
2023-02-22T13:51:06.991Z,51.92
2023-02-22T13:53:54.384Z,52.14
2023-02-22T13:56:23.648Z,52.07
2023-02-22T13:58:57.035Z,52.39
2023-02-22T14:01:41.948Z,52.11
2023-02-22T14:04:28.630Z,52.51
2023-02-22T14:07:00.923Z,51.78
2023-02-22T14:09:45.739Z,52.13
2023-02-22T14:12:30.792Z,52.13
2023-02-22T14:15:28.288Z,52.47
2023-02-22T14:18:02.918Z,52.22
2023-02-22T14:20:35.266Z,52.31
2023-02-22T14:23:30.017Z,52.38
2023-02-22T14:26:08.955Z,52.18
2023-02-22T14:28:40.952Z,52.04
2023-02-22T14:31:25.750Z,52.12
2023-02-22T14:34:03.174Z,52.44
2023-02-22T14:36:41.735Z,52.85
2023-02-22T14:39:19.975Z,52.92
2023-02-22T14:42:10.505Z,53.19
2023-02-22T14:44:59.866Z,53.12
2023-02-22T14:47:43.880Z,52.96
2023-02-22T14:50:25.338Z,52.95
2023-02-22T14:53:06.954Z,53.11
2023-02-22T14:55:40.937Z,53.46
2023-02-22T14:58:22.287Z,53.49
2023-02-22T15:00:53.062Z,53.62
2023-02-22T15:03:33.328Z,53.63
2023-02-22T15:06:39.413Z,53.58
2023-02-22T15:09:29.777Z,53.68
2023-02-22T15:12:03.142Z,53.30
2023-02-22T15:14:41.164Z,53.55
2023-02-22T15:17:13.668Z,53.63
2023-02-22T15:19:42.319Z,53.61
2023-02-22T15:22:21.918Z,53.76
2023-02-22T15:24:58.927Z,54.36
2023-02-22T15:27:26.403Z,53.92
2023-02-22T15:29:59.491Z,54.48
2023-02-22T15:32:31.523Z,55.07
2023-02-22T15:35:19.175Z,55.25
2023-02-22T15:37:47.393Z,55.28
2023-02-22T15:40:20.996Z,55.76
2023-02-22T15:42:58.520Z,56.24
2023-02-22T15:45:26.127Z,56.80
2023-02-22T15:47:54.991Z,57.17
2023-02-22T15:50:33.759Z,57.17
2023-02-22T15:53:24.067Z,57.33
2023-02-22T15:55:58.217Z,57.45
2023-02-22T15:58:29.239Z,57.78
2023-02-22T16:01:05.362Z,57.91
2023-02-22T16:03:46.355Z,58.11
2023-02-22T16:06:28.636Z,57.83
2023-02-22T16:08:58.832Z,58.65
2023-02-22T16:11:34.339Z,58.67
2023-02-22T16:14:06.105Z,58.62
2023-02-22T16:16:41.813Z,58.21
2023-02-22T16:19:17.745Z,58.30
2023-02-22T16:22:02.951Z,59.08
2023-02-22T16:24:34.027Z,59.13
2023-02-22T16:27:12.768Z,58.89
2023-02-22T16:29:40.501Z,59.98
2023-02-22T16:32:07.566Z,59.82
2023-02-22T16:34:34.846Z,59.64
2023-02-22T16:37:01.580Z,59.76
2023-02-22T16:39:30.695Z,59.83
2023-02-22T16:41:59.976Z,60.67
2023-02-22T16:44:28.113Z,60.61
2023-02-22T16:46:59.748Z,60.77
2023-02-22T16:49:26.998Z,60.79
2023-02-22T16:51:56.210Z,61.18
2023-02-22T16:54:29.736Z,61.12
2023-02-22T16:57:00.449Z,60.78
2023-02-22T16:59:26.976Z,60.60
2023-02-22T17:01:53.780Z,61.01
2023-02-22T17:04:24.279Z,61.54
2023-02-22T17:06:50.877Z,60.59
2023-02-22T17:09:20.030Z,61.08
2023-02-22T17:11:50.205Z,61.84
2023-02-22T17:14:20.319Z,61.92
2023-02-22T17:16:47.254Z,61.77
2023-02-22T17:19:19.551Z,62.49
2023-02-22T17:21:46.314Z,62.64
2023-02-22T17:24:16.379Z,62.41
2023-02-22T17:26:43.240Z,62.93
2023-02-22T17:29:09.837Z,63.04
2023-02-22T17:31:36.847Z,63.63
2023-02-22T17:34:05.607Z,63.16
2023-02-22T17:36:34.079Z,64.10
2023-02-22T17:39:03.150Z,63.50
2023-02-22T17:41:29.730Z,63.77
2023-02-22T17:44:00.987Z,63.86
2023-02-22T17:46:27.673Z,64.27
2023-02-22T17:48:54.326Z,64.26
2023-02-22T17:51:23.345Z,64.72
2023-02-22T17:53:51.319Z,64.57
2023-02-22T17:56:19.850Z,64.74
2023-02-22T17:58:53.132Z,65.00
2023-02-22T18:01:27.241Z,65.29
2023-02-22T18:03:56.186Z,65.50
2023-02-22T18:06:27.352Z,65.26
2023-02-22T18:08:56.648Z,65.86
2023-02-22T18:11:26.435Z,65.41
2023-02-22T18:13:55.461Z,66.27
2023-02-22T18:16:22.603Z,66.04
2023-02-22T18:18:49.757Z,67.11
2023-02-22T18:21:16.473Z,67.12
2023-02-22T18:23:44.996Z,67.37
2023-02-22T18:26:20.482Z,67.63
2023-02-22T18:28:50.427Z,67.65
2023-02-22T18:31:19.498Z,68.51
2023-02-22T18:33:48.971Z,68.12
2023-02-22T18:36:17.894Z,68.90
2023-02-22T18:38:44.959Z,68.36
2023-02-22T18:41:16.591Z,68.55
2023-02-22T18:43:43.794Z,69.00
2023-02-22T18:46:11.831Z,68.91
2023-02-22T18:48:39.393Z,69.09
2023-02-22T18:51:11.085Z,69.23
2023-02-22T18:53:40.907Z,69.60
2023-02-22T18:56:10.621Z,69.84
2023-02-22T18:58:38.935Z,70.01
2023-02-22T19:01:07.238Z,70.13
2023-02-22T19:03:38.218Z,70.18
2023-02-22T19:06:08.843Z,70.77
2023-02-22T19:08:40.207Z,70.76
2023-02-22T19:11:09.444Z,71.52
2023-02-22T19:13:37.130Z,71.60
2023-02-22T19:16:05.214Z,71.31
2023-02-22T19:18:31.970Z,71.44
2023-02-22T19:21:00.795Z,71.91
2023-02-22T19:23:29.525Z,71.12
2023-02-22T19:25:56.918Z,71.68
2023-02-22T19:28:28.217Z,71.76
2023-02-22T19:30:54.873Z,72.04
2023-02-22T19:33:26.091Z,72.42
2023-02-22T19:35:52.672Z,72.92
2023-02-22T19:38:19.854Z,73.51
2023-02-22T19:40:46.721Z,73.42
2023-02-22T19:43:14.273Z,73.55
2023-02-22T19:45:41.050Z,73.19
2023-02-22T19:48:07.651Z,73.49
2023-02-22T19:50:35.258Z,73.63
2023-02-22T19:53:01.922Z,73.99
2023-02-22T19:55:32.380Z,74.11
2023-02-22T19:57:59.411Z,74.09
2023-02-22T20:00:27.167Z,74.03
2023-02-22T20:03:05.764Z,74.66
2023-02-22T20:05:33.936Z,74.42
2023-02-22T20:08:00.598Z,74.75
2023-02-22T20:10:27.269Z,74.28
2023-02-22T20:12:53.851Z,74.69
2023-02-22T20:15:23.946Z,74.29
2023-02-22T20:17:51.361Z,74.19
2023-02-22T20:20:18.459Z,74.01
2023-02-22T20:22:45.688Z,74.09
2023-02-22T20:25:13.774Z,74.11
2023-02-22T20:27:40.613Z,74.65
2023-02-22T20:30:09.957Z,74.17
2023-02-22T20:32:37.927Z,74.39
2023-02-22T20:35:06.058Z,74.18
2023-02-22T20:37:34.075Z,74.18
2023-02-22T20:40:00.707Z,74.10
2023-02-22T20:42:27.386Z,73.71
2023-02-22T20:44:54.518Z,73.93
2023-02-22T20:47:23.458Z,73.97
2023-02-22T20:49:50.129Z,74.11
2023-02-22T20:52:16.771Z,74.50
2023-02-22T20:54:45.986Z,74.29
2023-02-22T20:57:15.067Z,74.29
2023-02-22T20:59:43.871Z,74.21
2023-02-22T21:02:10.923Z,74.12
2023-02-22T21:04:39.087Z,74.64
2023-02-22T21:07:08.289Z,74.80
2023-02-22T21:09:35.004Z,74.54
2023-02-22T21:12:01.570Z,74.90
2023-02-22T21:14:29.563Z,75.00
2023-02-22T21:16:56.121Z,74.85
2023-02-22T21:19:25.770Z,74.73
2023-02-22T21:21:54.970Z,74.73
2023-02-22T21:24:23.631Z,75.24
2023-02-22T21:26:50.701Z,75.07
2023-02-22T21:29:17.299Z,75.19
2023-02-22T21:31:44.117Z,75.26
2023-02-22T21:34:13.769Z,75.36
2023-02-22T21:36:40.342Z,75.54
2023-02-22T21:39:18.133Z,75.39
2023-02-22T21:41:50.615Z,75.60
2023-02-22T21:44:17.875Z,75.62
2023-02-22T21:46:47.319Z,75.59
2023-02-22T21:49:13.867Z,75.59
2023-02-22T21:51:41.472Z,75.76
2023-02-22T21:54:10.380Z,75.77
2023-02-22T21:56:39.961Z,75.64
2023-02-22T21:59:18.867Z,75.84
2023-02-22T22:01:49.698Z,75.61
2023-02-22T22:04:21.131Z,75.34
2023-02-22T22:06:53.398Z,75.11
2023-02-22T22:09:23.555Z,75.31
2023-02-22T22:11:58.535Z,75.64
2023-02-22T22:14:25.875Z,75.79
2023-02-22T22:16:56.032Z,75.36
2023-02-22T22:19:23.092Z,75.84
2023-02-22T22:21:53.343Z,75.57
2023-02-22T22:24:21.566Z,75.89
2023-02-22T22:26:54.813Z,75.97
2023-02-22T22:29:28.717Z,75.88
2023-02-22T22:31:55.579Z,76.01
2023-02-22T22:34:24.371Z,75.80
2023-02-22T22:36:51.074Z,75.84
2023-02-22T22:39:21.289Z,76.41
2023-02-22T22:41:48.530Z,76.20
2023-02-22T22:44:16.442Z,76.70
2023-02-22T22:46:43.882Z,76.46
2023-02-22T22:49:13.723Z,76.58
2023-02-22T22:51:47.497Z,76.27
2023-02-22T22:54:14.481Z,76.45
2023-02-22T22:56:41.122Z,76.75
2023-02-22T22:59:08.570Z,76.87
2023-02-22T23:01:44.944Z,76.76
2023-02-22T23:04:16.763Z,76.87
2023-02-22T23:06:45.744Z,77.18
2023-02-22T23:09:18.948Z,76.63
2023-02-22T23:12:08.743Z,76.63
2023-02-22T23:14:44.098Z,76.71
2023-02-22T23:17:15.408Z,76.83
2023-02-22T23:19:47.362Z,76.62
2023-02-22T23:22:14.502Z,76.30
2023-02-22T23:24:41.941Z,75.99
2023-02-22T23:27:12.397Z,76.22
2023-02-22T23:29:41.610Z,75.59
2023-02-22T23:32:09.034Z,75.53
2023-02-22T23:34:37.403Z,75.14
2023-02-22T23:37:04.024Z,74.89
2023-02-22T23:39:30.587Z,74.64
2023-02-22T23:42:26.828Z,74.88
2023-02-22T23:44:53.484Z,75.02
2023-02-22T23:47:20.014Z,74.89
2023-02-22T23:49:49.558Z,75.67
2023-02-22T23:52:24.112Z,74.98
2023-02-22T23:54:53.820Z,74.69
2023-02-22T23:57:20.694Z,74.72
2023-02-22T23:59:48.691Z,74.45
